Flight Track Log - Related Links

Times and Time Zones

All times are in EDT time to prevent confusion due to time zone crossing. See the GJS3710 flight status page for this flight to view local times or setup timezone preferences in your user account.

Time Position Orientation Groundspeed Altitude Reporting Facility
EDT Latitude Longitude Course Direction KTS MPH feet Rate Location/Type
Fri 09:16:58 PM 42.0167 -87.8667 66° East 149 171 2,200  Level Chicago TRACON
Fri 09:17:58 PM 42.0333 -87.8000 71° East 220 253 3,700 1,789 Climbing Chicago TRACON
Fri 09:18:52 PM 42.0667 -87.7333 56° Northeast 263 303 5,600 2,500 Climbing Chicago TRACON
Fri 09:19:58 PM 42.1000 -87.6333 66° East 284 327 8,700 2,565 Climbing Chicago TRACON
Fri 09:20:00 PM 42.1680 -87.3460 66° East  Level FlightAware Approximate
Fri 09:21:00 PM 42.2159 -87.2022 66° East  Level FlightAware Approximate
Fri 09:21:10 PM 42.1361 -87.5222 66° East 292 336 11,500  Level Chicago Center
Fri 09:22:00 PM 42.2620 -87.0640 66° East  Level FlightAware Approximate
Fri 09:22:12 PM 42.1678 -87.4169 68° East 303 349 13,600  Level Chicago Center
Fri 09:23:14 PM 42.1850 -87.2653 81° East 353 406 15,300 1,790 Climbing Chicago Center
Fri 09:24:16 PM 42.1908 -87.1281 87° East 367 422 17,300 1,935 Climbing Chicago Center
Fri 09:25:18 PM 42.1978 -86.9867 86° East 377 434 19,300 1,742 Climbing Chicago Center
Fri 09:26:20 PM 42.2033 -86.8397 87° East 392 451 20,900 1,548 Climbing Chicago Center
Fri 09:27:22 PM 42.2114 -86.6750 86° East 404 465 22,500 1,597 Climbing Chicago Center
Fri 09:28:24 PM 42.2186 -86.5094 87° East 418 481 24,200 1,452 Climbing Chicago Center
Fri 09:29:26 PM 42.2242 -86.3506 87° East 424 488 25,500 1,306 Climbing Chicago Center
Fri 09:30:28 PM 42.2322 -86.1864 86° East 435 501 26,900 1,161 Climbing Chicago Center
Fri 09:31:30 PM 42.2383 -86.0189 87° East 444 511 27,900 1,016 Climbing Chicago Center
Fri 09:32:32 PM 42.2447 -85.8269 87° East 457 526 29,000 1,113 Climbing Chicago Center
Fri 09:33:34 PM 42.2508 -85.6533 87° East 465 535 30,200 1,210 Climbing Chicago Center
Fri 09:34:36 PM 42.2556 -85.4806 88° East 465 535 31,500 1,220 Climbing Chicago Center
Fri 09:35:32 PM 42.2667 -85.3203 85° East 461 531 32,600 1,190 Climbing Cleveland Center
Fri 09:36:32 PM 42.2717 -85.1464 88° East 461 531 33,800 1,100 Climbing Cleveland Center
Fri 09:37:32 PM 42.2742 -84.9753 89° East 461 531 34,800 600 Climbing Cleveland Center
Fri 09:38:32 PM 42.2806 -84.8017 87° East 455 524 35,000 100 Climbing Cleveland Center
Fri 09:39:32 PM 42.2811 -84.6108 90° East 462 532 35,000  Level Cleveland Center
Fri 09:40:32 PM 42.2914 -84.4375 85° East 462 532 35,000  Level Cleveland Center
Fri 09:41:32 PM 42.3136 -84.2647 80° East 461 531 35,000  Level Cleveland Center
Fri 09:42:32 PM 42.3350 -84.1169 79° East 456 525 35,000  Level Cleveland Center
Fri 09:43:32 PM 42.3589 -83.9497 79° East 456 525 35,000 350 Level Cleveland Center
Fri 09:44:32 PM 42.3844 -83.7767 79° East 461 531 35,700 800 Climbing Cleveland Center
Fri 09:45:32 PM 42.4081 -83.6036 79° East 466 536 36,600 650 Climbing Cleveland Center
Fri 09:46:32 PM 42.4125 -83.4264 88° East 466 536 37,000 200 Climbing Cleveland Center
Fri 09:47:32 PM 42.4211 -83.2469 86° East 461 531 37,000  Level Cleveland Center
Fri 09:48:32 PM 42.4250 -83.0669 88° East 472 543 37,000  Level Cleveland Center
Fri 09:49:32 PM 42.4308 -82.8900 87° East 472 543 37,000  Level Cleveland Center
Fri 09:50:32 PM 42.4383 -82.7158 87° East 472 543 37,000  Level Cleveland Center
Fri 09:51:32 PM 42.4414 -82.5414 89° East 472 543 37,000  Level Cleveland Center
Fri 09:52:32 PM 42.4464 -82.3672 88° East 472 543 37,000  Level Cleveland Center
Fri 09:53:32 PM 42.4511 -82.1900 88° East 466 536 37,000  Level Cleveland Center
Fri 09:54:32 PM 42.4578 -81.9986 87° East 466 536 37,000  Level Cleveland Center
Fri 09:55:32 PM 42.4597 -81.8356 89° East 460 529 37,000  Level Cleveland Center
Fri 09:56:32 PM 42.4658 -81.6442 87° East 465 535 37,000  Level Cleveland Center
Fri 09:57:32 PM 42.4692 -81.4839 88° East 470 541 37,000  Level Cleveland Center
Fri 09:58:32 PM 42.4725 -81.2981 89° East 475 547 37,000  Level Cleveland Center
Fri 09:59:32 PM 42.4756 -81.1236 89° East 470 541 37,000  Level Cleveland Center
Fri 10:00:32 PM 42.4783 -80.9408 89° East 476 548 37,000  Level Cleveland Center
Fri 10:01:32 PM 42.4808 -80.7633 89° East 476 548 37,000  Level Cleveland Center
Fri 10:02:32 PM 42.4831 -80.5831 89° East 476 548 37,000  Level Cleveland Center
Fri 10:03:32 PM 42.4872 -80.3889 88° East 470 541 37,000  Level Cleveland Center
Fri 10:04:32 PM 42.4847 -80.2058 91° East 479 551 37,000  Level Cleveland Center
Fri 10:05:32 PM 42.4881 -80.0314 88° East 479 551 37,000  Level Cleveland Center
Fri 10:06:32 PM 42.4911 -79.8456 89° East 473 544 37,000  Level Cleveland Center
Fri 10:07:32 PM 42.4919 -79.6681 90° East 473 544 37,000  Level Cleveland Center
Fri 10:08:32 PM 42.4906 -79.4878 91° East 473 544 37,000  Level Cleveland Center
Fri 10:09:32 PM 42.4928 -79.3047 89° East 473 544 37,000  Level Cleveland Center
Fri 10:10:32 PM 42.5031 -79.1244 86° East 478 550 37,000  Level Cleveland Center
Fri 10:11:32 PM 42.5153 -78.9439 85° East 478 550 37,000  Level Cleveland Center
Fri 10:12:32 PM 42.5272 -78.7631 85° East 478 550 37,000  Level Cleveland Center
Fri 10:13:32 PM 42.5389 -78.5825 85° East 478 550 37,000  Level Cleveland Center
Fri 10:14:32 PM 42.5500 -78.3989 85° East 483 556 37,000  Level Cleveland Center
Fri 10:15:32 PM 42.5611 -78.2181 85° East 483 556 37,000  Level Cleveland Center
Fri 10:16:32 PM 42.5717 -78.0372 85° East 483 556 37,000  Level Cleveland Center
Fri 10:17:32 PM 42.5822 -77.8564 85° East 483 556 37,000 -100 Level Cleveland Center
Fri 10:18:32 PM 42.5964 -77.6694 84° East 483 556 36,800 -964 Descending Cleveland Center
Fri 10:20:20 PM 42.6119 -77.3331 86° East 494 568 34,300 -1,464 Descending Boston Center
Fri 10:21:20 PM 42.6217 -77.1531 86° East 494 568 32,700 -1,550 Descending Boston Center
Fri 10:22:20 PM 42.6331 -76.9761 85° East 474 545 31,200 -1,450 Descending Boston Center
Fri 10:23:20 PM 42.6419 -76.7989 86° East 469 540 29,800 -1,100 Descending Boston Center
Fri 10:24:20 PM 42.6483 -76.6325 87° East 454 522 29,000 -364 Descending Boston Center
Fri 10:25:32 PM 42.6564 -76.4664 86° East 448 516 29,000  Level Boston Center
Fri 10:26:32 PM 42.6653 -76.2636 87° East 443 510 29,000 -818 Level Boston Center
Fri 10:27:44 PM 42.6731 -76.0947 86° East 443 510 27,200 -1,864 Descending Boston Center
Fri 10:28:44 PM 42.6814 -75.8972 87° East 433 498 24,900 -2,050 Descending Boston Center
Fri 10:29:44 PM 42.6881 -75.7367 87° East 428 493 23,100 -1,750 Descending Boston Center
Fri 10:30:44 PM 42.6944 -75.5872 87° East 414 476 21,400 -1,650 Descending Boston Center
Fri 10:31:44 PM 42.7003 -75.4492 87° East 387 445 19,800 -1,550 Descending Boston Center
Fri 10:32:44 PM 42.7058 -75.3108 87° East 368 423 18,300 -1,350 Descending Boston Center
Fri 10:33:44 PM 42.7114 -75.1697 87° East 368 423 17,100 -1,300 Descending Boston Center
Fri 10:34:44 PM 42.7144 -75.0400 88° East 363 418 15,700 -1,300 Descending Boston Center
Fri 10:35:44 PM 42.7175 -74.9128 88° East 345 397 14,500 -1,200 Descending Boston Center
Fri 10:36:44 PM 42.7200 -74.7886 88° East 334 384 13,300 -1,150 Descending Boston Center
Fri 10:37:44 PM 42.7244 -74.6758 87° East 329 379 12,200 -1,000 Descending Boston Center
Fri 10:38:44 PM 42.7289 -74.5486 87° East 318 366 11,300 -545 Descending Boston Center
Fri 10:39:56 PM 42.7308 -74.4383 89° East 313 360 11,000 -136 Descending Boston Center
Fri 10:40:56 PM 42.7356 -74.2858 88° East 308 354 11,000 -100 Level Boston Center
Fri 10:41:56 PM 42.7394 -74.1703 87° East 308 354 10,800 -900 Descending Boston Center
Fri 10:42:56 PM 42.7431 -74.0714 87° East 308 354 9,200 -1,800 Descending Boston Center
Fri 10:43:56 PM 42.7319 -73.9722 99° East 282 325 7,200 -2,000 Descending Boston Center
Fri 10:44:56 PM 42.6892 -73.8919 126° Southeast 256 295 5,200 -1,800 Descending Boston Center
Fri 10:45:56 PM 42.6314 -73.8511 153° Southeast 234 269 3,600 -1,250 Descending Boston Center
Fri 10:46:56 PM 42.5881 -73.8106 145° Southeast 208 239 2,700 -900 Descending Boston Center

Login

Don't have an account? Register now (free) for customized features, flight alerts, and more!